KOMK/OMK METAR and TAF weather

Enter ICAO airport designator
Station Type Date Time Source
KOMK METAR 2021/06/24 04:53 UTC NOAA

KOMK 240453Z AUTO 29007KT 10SM CLR 26/08 A2977 RMK AO2 SLP070 T02560078


Station Type Date Time Source
KOMK Decoded METAR 2021/06/24 04:53 UTC NOAA

OMAK AIRPORT, WA, United States (KOMK) 48-28N 119-31W 395M
Jun 24, 2021 - 12:53 AM EDT / 2021.06.24 0453 UTC
Wind: from the WNW (290 degrees) at 8 MPH (7 KT):0
Visibility: 10 mile(s):0
Sky conditions: clear
Temperature: 78.1 F (25.6 C)
Dew Point: 46.0 F (7.8 C)
Relative Humidity: 32%
Pressure (altimeter): 29.77 in. Hg (1008 hPa)
ob: KOMK 240453Z AUTO 29007KT 10SM CLR 26/08 A2977 RMK AO2 SLP070 T02560078
cycle: 5

Station Type Date Time Source
KOMK TAF UTC NOAA

Error!

Example: see airport list